Main page


Airports :

Amman, Jordan

Amman Civil Airport

latitude: 31-59N, longitude: 035-59E, elevation: 767 m

Current weather observation

The report was made 43 minutes ago, at 21:00 UTC
Wind 3 kt from the East/Southeast
Temperature 21°C
Humidity 25%
Pressure 1015 hPa
Visibility: 6000 m

METAR: OJAM 222100Z 11003KT 6000 NSC 21/M00 Q1015 NOSIG

Time: 23:43 (21:43 UTC)


The report was made 4 hours and 53 minutes ago, at 16:50 UTC
Forecast valid from 22 at 18 UTC to 23 at 24 UTC
Wind 6 kt from the East
Visibility: 5000 m
from 23 at 08 UTC to 23 at 10 UTC
Wind 14 kt from the Southeast
Visibility: 4000 m
from 23 at 12 UTC to 23 at 14 UTC
Wind 14 kt from the Southwest
Visibility: 3000 m
Blowing dust

TAF: OJAM 221650Z 2218/2324 10006KT 5000 HZ NSC BECMG 2308/2310 14014KT 4000 HZ NSC BECMG 2312/2314 23014KT 3000 BLDU

Weather observations and forecasts of more than 4000 airports (METAR and TAF reports).

The available stations are represented by yellow and red dots on the map.

Hover mouse over dot to see the name of the station.

Then click to see weather observations and forecasts.

To change the map : click on the green buttons with a black cross to zoom in, on the green button with a dash to zoom out, or on the green arrows for adjacent maps.